createdAt,value
2019-03-05T00:01:25.852Z,5.69
2019-03-05T00:03:55.334Z,5.77
2019-03-05T00:06:25.043Z,5.91
2019-03-05T00:08:55.954Z,5.85
2019-03-05T00:11:25.395Z,5.73
2019-03-05T00:13:54.919Z,5.69
2019-03-05T00:16:24.301Z,5.69
2019-03-05T00:18:53.754Z,5.53
2019-03-05T00:21:23.203Z,5.60
2019-03-05T00:24:15.907Z,5.56
2019-03-05T00:26:45.745Z,5.51
2019-03-05T00:29:41.646Z,5.47
2019-03-05T00:32:11.214Z,5.38
2019-03-05T00:34:53.191Z,5.48
2019-03-05T00:38:02.614Z,5.53
2019-03-05T00:40:59.055Z,5.38
2019-03-05T00:44:06.089Z,5.36
2019-03-05T00:47:10.388Z,5.20
2019-03-05T00:50:00.789Z,5.09
2019-03-05T00:53:10.967Z,4.55
2019-03-05T00:56:05.102Z,4.06
2019-03-05T00:58:58.719Z,4.43
2019-03-05T01:02:05.267Z,4.43
2019-03-05T01:04:54.520Z,4.29
2019-03-05T01:07:25.259Z,4.24
2019-03-05T01:09:55.070Z,4.27
2019-03-05T01:12:25.231Z,4.10
2019-03-05T01:14:56.176Z,4.10
2019-03-05T01:17:25.931Z,4.02
2019-03-05T01:19:55.323Z,3.96
2019-03-05T01:22:24.790Z,3.92
2019-03-05T01:24:54.205Z,3.75
2019-03-05T01:27:23.554Z,3.73
2019-03-05T01:29:52.942Z,3.64
2019-03-05T01:32:47.552Z,3.57
2019-03-05T01:35:25.778Z,3.59
2019-03-05T01:37:55.604Z,3.67
2019-03-05T01:40:50.127Z,3.56
2019-03-05T01:43:19.505Z,3.58
2019-03-05T01:45:48.868Z,2.69
2019-03-05T01:48:18.299Z,3.54
2019-03-05T01:50:47.679Z,3.74
2019-03-05T01:53:17.059Z,3.94
2019-03-05T01:55:46.408Z,3.96
2019-03-05T01:58:15.772Z,4.09
2019-03-05T02:00:45.142Z,3.92
2019-03-05T02:03:14.557Z,3.99
2019-03-05T02:05:43.979Z,3.86
2019-03-05T02:08:13.536Z,3.86
2019-03-05T02:10:43.020Z,4.03
2019-03-05T02:13:12.511Z,4.03
2019-03-05T02:15:41.918Z,4.17
2019-03-05T02:18:17.794Z,4.11
2019-03-05T02:20:47.398Z,4.11
2019-03-05T02:23:24.417Z,3.12
2019-03-05T02:26:27.972Z,3.12
2019-03-05T02:29:29.310Z,4.32
2019-03-05T02:32:45.377Z,4.42
2019-03-05T02:35:38.209Z,4.56
2019-03-05T02:38:51.145Z,4.56
2019-03-05T02:41:48.558Z,4.59
2019-03-05T02:45:07.620Z,3.70
2019-03-05T02:48:12.964Z,3.70
2019-03-05T02:51:26.568Z,3.85
2019-03-05T02:54:41.227Z,3.85
2019-03-05T02:57:09.783Z,3.92
2019-03-05T02:59:39.444Z,3.41
2019-03-05T03:02:37.612Z,3.27
2019-03-05T03:05:41.637Z,2.69
2019-03-05T03:08:11.028Z,2.57
2019-03-05T03:10:40.380Z,2.81
2019-03-05T03:13:09.775Z,2.85
2019-03-05T03:15:39.319Z,2.69
2019-03-05T03:18:08.700Z,2.83
2019-03-05T03:20:38.117Z,2.77
2019-03-05T03:23:07.475Z,2.60
2019-03-05T03:25:36.838Z,2.72
2019-03-05T03:28:06.229Z,2.89
2019-03-05T03:30:35.576Z,2.79
2019-03-05T03:33:04.949Z,2.95
2019-03-05T03:35:34.306Z,3.03
2019-03-05T03:38:03.732Z,2.94
2019-03-05T03:40:33.103Z,2.97
2019-03-05T03:43:02.588Z,3.10
2019-03-05T03:45:31.921Z,3.32
2019-03-05T03:48:01.485Z,3.26
2019-03-05T03:50:30.862Z,0.74
2019-03-05T03:53:00.212Z,3.43
2019-03-05T03:55:29.722Z,3.59
2019-03-05T03:57:59.051Z,3.54
2019-03-05T04:00:28.642Z,3.48
2019-03-05T04:02:58.015Z,3.54
2019-03-05T04:05:27.381Z,3.58
2019-03-05T04:07:56.755Z,3.79
2019-03-05T04:10:26.130Z,3.91
2019-03-05T04:12:55.612Z,3.92
2019-03-05T04:15:25.010Z,3.77
2019-03-05T04:17:54.396Z,3.54
2019-03-05T04:20:35.325Z,3.56
2019-03-05T04:23:04.710Z,3.81
2019-03-05T04:25:34.931Z,3.81
2019-03-05T04:28:04.326Z,4.05
2019-03-05T04:30:33.735Z,4.05
2019-03-05T04:33:03.126Z,4.16
2019-03-05T04:35:32.522Z,4.24
2019-03-05T04:38:01.891Z,2.79
2019-03-05T04:40:31.267Z,4.16
2019-03-05T04:43:00.621Z,3.61
2019-03-05T04:46:05.647Z,3.61
2019-03-05T04:48:35.078Z,3.68
2019-03-05T04:51:32.423Z,3.82
2019-03-05T04:54:01.802Z,3.83
2019-03-05T04:56:31.182Z,3.86
2019-03-05T04:59:00.560Z,3.86
2019-03-05T05:01:29.963Z,3.99
2019-03-05T05:03:59.349Z,3.99
2019-03-05T05:06:28.768Z,4.04
2019-03-05T05:08:58.139Z,4.11
2019-03-05T05:11:27.565Z,4.11
2019-03-05T05:13:57.010Z,4.37
2019-03-05T05:16:26.371Z,4.37
2019-03-05T05:18:55.783Z,4.58
2019-03-05T05:21:25.233Z,4.41
2019-03-05T05:23:54.685Z,4.69
2019-03-05T05:26:24.945Z,4.87
2019-03-05T05:28:54.309Z,5.17
2019-03-05T05:31:23.695Z,5.54
2019-03-05T05:33:53.075Z,5.43
2019-03-05T05:36:22.436Z,5.24
2019-03-05T05:38:51.893Z,5.48
2019-03-05T05:41:21.251Z,5.42
2019-03-05T05:43:50.658Z,5.03
2019-03-05T05:46:20.032Z,4.86
2019-03-05T05:48:49.430Z,4.73
2019-03-05T05:51:18.855Z,4.71
2019-03-05T05:53:48.185Z,4.68
2019-03-05T05:56:17.541Z,5.00
2019-03-05T05:58:47.174Z,5.16
2019-03-05T06:01:16.535Z,5.25
2019-03-05T06:03:45.913Z,5.33
2019-03-05T06:06:15.309Z,5.97
2019-03-05T06:08:44.775Z,6.38
2019-03-05T06:11:14.111Z,6.90
2019-03-05T06:13:43.791Z,7.16
2019-03-05T06:16:14.207Z,7.47
2019-03-05T06:18:43.745Z,7.77
2019-03-05T06:21:13.209Z,8.11
2019-03-05T06:23:42.685Z,8.38
2019-03-05T06:26:12.109Z,8.13
2019-03-05T06:28:41.567Z,8.03
2019-03-05T06:31:11.068Z,8.01
2019-03-05T06:33:40.586Z,8.01
2019-03-05T06:36:10.127Z,8.12
2019-03-05T06:38:39.632Z,8.33
2019-03-05T06:41:09.190Z,8.17
2019-03-05T06:43:38.561Z,8.14
2019-03-05T06:46:07.938Z,8.17
2019-03-05T06:48:37.258Z,8.57
2019-03-05T06:51:06.904Z,8.96
2019-03-05T06:53:36.289Z,9.41
2019-03-05T06:56:05.801Z,9.53
2019-03-05T06:58:35.322Z,10.01
2019-03-05T07:01:04.761Z,10.06
2019-03-05T07:03:34.411Z,10.16
2019-03-05T07:06:39.689Z,10.57
2019-03-05T07:09:38.502Z,10.96
2019-03-05T07:12:27.424Z,11.29
2019-03-05T07:15:39.938Z,11.84
2019-03-05T07:18:13.452Z,12.49
2019-03-05T07:21:17.758Z,13.12
2019-03-05T07:24:14.776Z,13.17
2019-03-05T07:26:44.200Z,13.19
2019-03-05T07:29:13.547Z,13.43
2019-03-05T07:31:43.842Z,13.96
2019-03-05T07:34:19.385Z,13.97
2019-03-05T07:36:48.869Z,14.30
2019-03-05T07:39:22.428Z,14.17
2019-03-05T07:41:51.804Z,14.55
2019-03-05T07:44:21.258Z,15.08
2019-03-05T07:46:50.651Z,14.91
2019-03-05T07:49:20.808Z,15.43
2019-03-05T07:51:50.775Z,14.93
2019-03-05T07:54:20.290Z,14.79
2019-03-05T07:56:49.667Z,14.59
2019-03-05T07:59:19.039Z,15.06
2019-03-05T08:01:48.505Z,15.08
2019-03-05T08:04:17.929Z,15.46
2019-03-05T08:06:47.790Z,15.64
2019-03-05T08:09:38.567Z,15.71
2019-03-05T08:12:45.536Z,15.24
2019-03-05T08:16:08.827Z,15.71
2019-03-05T08:18:38.401Z,15.81
2019-03-05T08:21:08.161Z,15.74
2019-03-05T08:23:37.685Z,15.13
2019-03-05T08:26:07.559Z,15.13
2019-03-05T08:28:37.783Z,14.84
2019-03-05T08:31:07.576Z,15.93
2019-03-05T08:33:37.038Z,16.38
2019-03-05T08:36:07.438Z,16.46
2019-03-05T08:38:36.824Z,16.58
2019-03-05T08:41:06.212Z,16.60
2019-03-05T08:43:35.675Z,16.75
2019-03-05T08:46:05.197Z,16.96
2019-03-05T08:48:34.583Z,17.17
2019-03-05T08:51:03.929Z,17.55
2019-03-05T08:53:33.822Z,17.93
2019-03-05T08:56:03.228Z,18.52
2019-03-05T08:58:32.633Z,18.58
2019-03-05T09:01:02.010Z,18.54
2019-03-05T09:03:31.388Z,18.35
2019-03-05T09:06:00.770Z,18.41
2019-03-05T09:08:30.145Z,18.33
2019-03-05T09:10:59.626Z,18.84
2019-03-05T09:13:32.554Z,19.24
2019-03-05T09:16:00.174Z,19.10
2019-03-05T09:18:29.581Z,19.08
2019-03-05T09:20:59.003Z,18.98
2019-03-05T09:23:29.261Z,18.84
2019-03-05T09:25:58.708Z,19.12
2019-03-05T09:28:28.090Z,19.70
2019-03-05T09:30:57.893Z,19.47
2019-03-05T09:33:27.421Z,19.44
2019-03-05T09:36:00.080Z,19.37
2019-03-05T09:38:30.428Z,19.20
2019-03-05T09:40:59.964Z,19.50
2019-03-05T09:43:29.361Z,19.73
2019-03-05T09:45:58.872Z,19.67
2019-03-05T09:48:28.296Z,20.22
2019-03-05T09:50:57.767Z,20.79
2019-03-05T09:53:27.173Z,21.66
2019-03-05T09:55:56.791Z,21.18
2019-03-05T09:58:26.821Z,21.30
2019-03-05T10:00:56.347Z,21.52
2019-03-05T10:03:28.756Z,20.42
2019-03-05T10:05:58.569Z,21.19
2019-03-05T10:08:32.474Z,20.94
2019-03-05T10:11:09.324Z,21.19
2019-03-05T10:17:18.079Z,21.06
2019-03-05T10:19:46.816Z,20.19
2019-03-05T10:22:16.240Z,20.66
2019-03-05T10:24:45.617Z,20.98
2019-03-05T10:27:15.953Z,21.06
2019-03-05T10:29:45.353Z,21.41
2019-03-05T10:32:14.997Z,21.65
2019-03-05T10:34:44.426Z,21.51
2019-03-05T10:37:18.771Z,20.93
2019-03-05T10:39:45.632Z,21.12
2019-03-05T10:42:15.267Z,20.94
2019-03-05T10:44:44.641Z,20.69
2019-03-05T10:47:14.254Z,21.23
2019-03-05T10:49:44.660Z,20.86
2019-03-05T10:52:14.340Z,20.15
2019-03-05T10:54:44.584Z,20.67
2019-03-05T10:57:15.384Z,19.76
2019-03-05T10:59:45.732Z,19.51
2019-03-05T11:02:16.714Z,20.07
2019-03-05T11:04:46.205Z,19.74
2019-03-05T11:07:16.373Z,19.32
2019-03-05T11:09:45.811Z,19.46
2019-03-05T11:12:15.153Z,19.40
2019-03-05T11:14:44.660Z,19.22
2019-03-05T11:17:14.167Z,19.12
2019-03-05T11:19:43.555Z,18.76
2019-03-05T11:22:13.019Z,18.63
2019-03-05T11:24:42.600Z,18.63
2019-03-05T11:27:12.034Z,18.24
2019-03-05T11:29:41.426Z,18.46
2019-03-05T11:32:11.036Z,18.73
2019-03-05T11:34:40.425Z,18.63
2019-03-05T11:37:09.978Z,18.15
2019-03-05T11:39:40.878Z,17.89
2019-03-05T11:42:10.638Z,17.82
2019-03-05T11:44:43.090Z,17.59
2019-03-05T11:47:12.608Z,17.53
2019-03-05T11:49:42.889Z,17.51
2019-03-05T11:52:12.206Z,17.49
2019-03-05T11:54:41.610Z,17.57
2019-03-05T11:57:11.071Z,17.64
2019-03-05T11:59:42.202Z,17.68
2019-03-05T12:02:21.382Z,17.58
2019-03-05T12:04:42.801Z,17.34
2019-03-05T12:07:12.171Z,17.23
2019-03-05T12:09:41.747Z,17.28
2019-03-05T12:12:11.149Z,17.25
2019-03-05T12:14:40.547Z,17.22
2019-03-05T12:17:10.063Z,17.23
2019-03-05T12:19:39.437Z,17.40
2019-03-05T12:22:08.917Z,17.42
2019-03-05T12:24:38.309Z,17.42
2019-03-05T12:27:08.086Z,17.42
2019-03-05T12:29:37.468Z,17.55
2019-03-05T12:32:06.929Z,17.50
2019-03-05T12:34:37.461Z,17.36
2019-03-05T12:37:06.839Z,17.22
2019-03-05T12:39:36.247Z,17.22
2019-03-05T12:42:05.624Z,17.31
2019-03-05T12:44:34.995Z,17.39
2019-03-05T12:47:04.517Z,17.34
2019-03-05T12:49:33.868Z,17.30
2019-03-05T12:52:03.249Z,17.34
2019-03-05T12:54:32.651Z,17.39
2019-03-05T12:57:02.068Z,17.38
2019-03-05T12:59:31.491Z,17.40
2019-03-05T13:02:00.891Z,17.47
2019-03-05T13:04:30.224Z,17.47
2019-03-05T13:06:59.591Z,17.56
2019-03-05T13:09:29.032Z,17.52
2019-03-05T13:11:58.479Z,17.53
2019-03-05T13:14:27.859Z,17.52
2019-03-05T13:16:57.263Z,17.29
2019-03-05T13:19:26.683Z,17.26
2019-03-05T13:21:56.085Z,17.20
2019-03-05T13:24:25.494Z,17.12
2019-03-05T13:26:54.830Z,17.04
2019-03-05T13:29:24.197Z,16.97
2019-03-05T13:31:53.586Z,16.95
2019-03-05T13:34:22.944Z,16.93
2019-03-05T13:36:52.346Z,16.91
2019-03-05T13:39:23.694Z,16.80
2019-03-05T13:41:54.150Z,16.81
2019-03-05T13:44:37.139Z,16.82
2019-03-05T13:47:10.079Z,16.79
2019-03-05T13:50:13.589Z,16.73
2019-03-05T13:53:14.857Z,16.74
2019-03-05T13:56:30.299Z,16.78
2019-03-05T13:59:44.135Z,16.65
2019-03-05T14:02:15.365Z,16.52
2019-03-05T14:05:31.363Z,16.48
2019-03-05T14:08:43.359Z,16.47
2019-03-05T14:11:12.761Z,16.46
2019-03-05T14:13:42.501Z,16.41
2019-03-05T14:16:13.480Z,16.37
2019-03-05T14:18:42.924Z,16.30
2019-03-05T14:21:12.318Z,16.27
2019-03-05T14:23:41.932Z,16.35
2019-03-05T14:26:11.284Z,16.35
2019-03-05T14:28:40.651Z,16.34
2019-03-05T14:31:10.049Z,16.32
2019-03-05T14:33:39.415Z,16.31
2019-03-05T14:36:08.824Z,16.30
2019-03-05T14:38:38.218Z,16.28
2019-03-05T14:41:07.870Z,16.28
2019-03-05T14:43:37.307Z,16.23
2019-03-05T14:46:06.757Z,16.25
2019-03-05T14:48:36.288Z,16.26
2019-03-05T14:51:05.883Z,16.28
2019-03-05T14:53:35.283Z,16.28
2019-03-05T14:56:04.668Z,16.30
2019-03-05T14:58:34.080Z,16.23
2019-03-05T15:01:03.480Z,16.19
2019-03-05T15:03:33.174Z,16.15
2019-03-05T15:06:02.560Z,16.08
2019-03-05T15:08:31.986Z,16.11
2019-03-05T15:11:01.345Z,16.14
2019-03-05T15:13:30.857Z,16.07
2019-03-05T15:16:00.628Z,16.05
2019-03-05T15:18:30.254Z,16.02
2019-03-05T15:20:59.617Z,15.99
2019-03-05T15:23:29.391Z,16.02
2019-03-05T15:25:59.035Z,16.09
2019-03-05T15:28:28.438Z,16.11
2019-03-05T15:30:57.823Z,16.05
2019-03-05T15:33:27.165Z,16.02
2019-03-05T15:35:56.686Z,15.96
2019-03-05T15:38:26.042Z,15.94
2019-03-05T15:40:55.421Z,15.96
2019-03-05T15:43:24.874Z,15.95
2019-03-05T15:45:54.268Z,15.92
2019-03-05T15:48:23.901Z,15.88
2019-03-05T15:50:53.325Z,15.87
2019-03-05T15:53:22.766Z,15.83
2019-03-05T15:55:52.172Z,15.79
2019-03-05T15:58:21.601Z,15.72
2019-03-05T16:00:50.971Z,15.55
2019-03-05T16:03:20.456Z,15.45
2019-03-05T16:05:49.844Z,15.37
2019-03-05T16:08:20.954Z,15.36
2019-03-05T16:10:54.078Z,15.36
2019-03-05T16:13:21.532Z,15.33
2019-03-05T16:15:50.925Z,15.30
2019-03-05T16:18:20.348Z,15.24
2019-03-05T16:20:49.698Z,15.24
2019-03-05T16:23:19.047Z,15.18
2019-03-05T16:25:50.314Z,15.12
2019-03-05T16:28:20.274Z,15.06
2019-03-05T16:31:03.995Z,15.03
2019-03-05T16:33:55.036Z,15.01
2019-03-05T16:36:53.304Z,14.94
2019-03-05T16:39:37.551Z,14.81
2019-03-05T16:42:41.947Z,14.76
2019-03-05T16:45:24.179Z,14.64
2019-03-05T16:48:19.002Z,14.58
2019-03-05T16:51:06.192Z,14.48
2019-03-05T16:53:54.561Z,14.36
2019-03-05T16:56:54.947Z,14.29
2019-03-05T16:59:43.617Z,14.21
2019-03-05T17:02:41.184Z,14.20
2019-03-05T17:05:37.818Z,14.13
2019-03-05T17:08:29.106Z,14.05
2019-03-05T17:11:16.182Z,14.06
2019-03-05T17:13:45.547Z,14.02
2019-03-05T17:16:14.955Z,13.98
2019-03-05T17:18:44.359Z,13.93
2019-03-05T17:21:13.672Z,13.88
2019-03-05T17:23:43.392Z,13.85
2019-03-05T17:26:12.862Z,13.83
2019-03-05T17:28:42.308Z,13.73
2019-03-05T17:31:11.802Z,13.65
2019-03-05T17:33:41.182Z,13.63
2019-03-05T17:36:10.962Z,13.58
2019-03-05T17:38:41.237Z,13.54
2019-03-05T17:41:10.856Z,13.44
2019-03-05T17:43:42.730Z,13.35
2019-03-05T17:46:12.485Z,13.27
2019-03-05T17:48:41.893Z,13.17
2019-03-05T17:51:11.401Z,13.09
2019-03-05T17:53:40.843Z,13.08
2019-03-05T17:56:12.920Z,13.06
2019-03-05T17:58:42.310Z,13.03
2019-03-05T18:01:11.703Z,13.00
2019-03-05T18:03:41.213Z,12.97
2019-03-05T18:06:10.619Z,12.93
2019-03-05T18:08:40.932Z,12.87
2019-03-05T18:11:10.584Z,12.81
2019-03-05T18:13:39.965Z,12.73
2019-03-05T18:16:09.539Z,12.69
2019-03-05T18:18:41.113Z,12.64
2019-03-05T18:21:10.467Z,12.59
2019-03-05T18:23:40.018Z,12.53
2019-03-05T18:26:09.717Z,12.52
2019-03-05T18:28:39.102Z,12.48
2019-03-05T18:31:08.927Z,12.41
2019-03-05T18:33:38.307Z,12.36
2019-03-05T18:36:07.654Z,12.30
2019-03-05T18:38:37.236Z,12.26
2019-03-05T18:41:06.697Z,12.24
2019-03-05T18:43:36.100Z,12.21
2019-03-05T18:46:06.903Z,12.27
2019-03-05T18:48:36.301Z,12.36
2019-03-05T18:51:05.827Z,12.37
2019-03-05T18:53:35.516Z,12.36
2019-03-05T18:56:05.157Z,12.23
2019-03-05T18:58:34.825Z,12.14
2019-03-05T19:01:04.465Z,12.10
2019-03-05T19:03:33.845Z,12.05
2019-03-05T19:06:03.289Z,12.03
2019-03-05T19:08:32.896Z,11.97
2019-03-05T19:11:02.361Z,11.96
2019-03-05T19:13:31.951Z,11.90
2019-03-05T19:16:02.675Z,11.91
2019-03-05T19:18:32.033Z,11.90
2019-03-05T19:21:01.585Z,11.88
2019-03-05T19:23:30.940Z,11.86
2019-03-05T19:26:00.309Z,11.91
2019-03-05T19:28:29.662Z,11.92
2019-03-05T19:30:59.042Z,11.92
2019-03-05T19:33:28.483Z,11.86
2019-03-05T19:35:57.865Z,11.85
2019-03-05T19:38:27.250Z,11.85
2019-03-05T19:40:56.591Z,11.79
2019-03-05T19:43:26.279Z,11.78
2019-03-05T19:45:55.668Z,11.78
2019-03-05T19:48:25.459Z,11.75
2019-03-05T19:50:55.904Z,11.75
2019-03-05T19:53:25.284Z,11.74
2019-03-05T19:55:54.607Z,11.69
2019-03-05T19:58:24.334Z,11.68
2019-03-05T20:01:02.343Z,11.69
2019-03-05T20:03:31.759Z,11.68
2019-03-05T20:06:01.106Z,11.68
2019-03-05T20:08:39.450Z,11.58
2019-03-05T20:11:02.684Z,11.53
2019-03-05T20:13:34.599Z,11.46
2019-03-05T20:16:06.129Z,11.42
2019-03-05T20:18:35.564Z,11.45
2019-03-05T20:21:05.250Z,11.41
2019-03-05T20:23:35.042Z,11.37
2019-03-05T20:26:04.620Z,11.39
2019-03-05T20:28:35.782Z,11.37
2019-03-05T20:31:05.239Z,11.36
2019-03-05T20:33:34.831Z,11.35
2019-03-05T20:36:04.334Z,11.28
2019-03-05T20:38:33.834Z,11.29
2019-03-05T20:41:03.243Z,11.29
2019-03-05T20:43:32.703Z,11.24
2019-03-05T20:46:12.347Z,11.24
2019-03-05T20:48:41.738Z,11.25
2019-03-05T20:51:11.271Z,11.25
2019-03-05T20:53:40.715Z,11.19
2019-03-05T20:56:10.529Z,11.16
2019-03-05T20:58:39.964Z,11.12
2019-03-05T21:01:10.833Z,11.10
2019-03-05T21:03:40.332Z,11.11
2019-03-05T21:06:09.780Z,11.02
2019-03-05T21:08:43.043Z,10.94
2019-03-05T21:11:12.480Z,10.81
2019-03-05T21:13:41.910Z,10.71
2019-03-05T21:16:11.302Z,10.58
2019-03-05T21:18:40.532Z,10.31
2019-03-05T21:21:09.946Z,9.86
2019-03-05T21:23:39.332Z,9.55
2019-03-05T21:26:08.705Z,9.07
2019-03-05T21:28:38.044Z,8.69
2019-03-05T21:31:07.809Z,8.66
2019-03-05T21:33:37.339Z,8.64
2019-03-05T21:36:06.705Z,8.67
2019-03-05T21:38:38.318Z,8.61
2019-03-05T21:41:08.025Z,8.39
2019-03-05T21:43:49.256Z,8.23
2019-03-05T21:46:21.697Z,8.31
2019-03-05T21:48:51.149Z,8.23
2019-03-05T21:51:20.535Z,8.28
2019-03-05T21:53:50.085Z,8.10
2019-03-05T21:56:19.643Z,8.00
2019-03-05T21:58:48.997Z,7.86
2019-03-05T22:01:18.339Z,7.91
2019-03-05T22:03:47.975Z,7.99
2019-03-05T22:06:17.389Z,8.04
2019-03-05T22:08:46.790Z,8.09
2019-03-05T22:11:19.106Z,7.99
2019-03-05T22:13:48.485Z,8.01
2019-03-05T22:16:17.820Z,8.15
2019-03-05T22:18:47.360Z,8.08
2019-03-05T22:21:16.692Z,8.02
2019-03-05T22:23:46.030Z,8.04
2019-03-05T22:26:15.391Z,8.05
2019-03-05T22:28:44.710Z,8.04
2019-03-05T22:31:14.156Z,8.07
2019-03-05T22:33:44.932Z,8.09
2019-03-05T22:36:14.307Z,8.05
2019-03-05T22:38:45.596Z,8.09
2019-03-05T22:41:14.933Z,8.09
2019-03-05T22:43:44.314Z,8.07
2019-03-05T22:46:13.684Z,8.14
2019-03-05T22:48:43.046Z,8.13
2019-03-05T22:51:12.763Z,8.13
2019-03-05T22:53:42.139Z,8.12
2019-03-05T22:56:11.499Z,8.14
2019-03-05T22:58:40.857Z,8.09
2019-03-05T23:01:19.669Z,8.08
2019-03-05T23:04:01.343Z,8.10
2019-03-05T23:06:30.803Z,8.08
2019-03-05T23:09:00.190Z,8.09
2019-03-05T23:11:30.147Z,8.07
2019-03-05T23:13:59.515Z,8.04
2019-03-05T23:16:29.147Z,8.05
2019-03-05T23:18:58.531Z,8.09
2019-03-05T23:21:27.894Z,8.10
2019-03-05T23:23:57.262Z,8.01
2019-03-05T23:26:26.595Z,8.03
2019-03-05T23:28:55.933Z,7.99
2019-03-05T23:31:25.332Z,7.99
2019-03-05T23:33:54.901Z,7.98
2019-03-05T23:36:24.337Z,7.95
2019-03-05T23:38:53.815Z,7.94
2019-03-05T23:41:24.592Z,7.90
2019-03-05T23:44:04.962Z,7.92
2019-03-05T23:46:34.324Z,7.93
2019-03-05T23:49:03.687Z,7.90
2019-03-05T23:51:33.064Z,7.90
2019-03-05T23:54:02.639Z,7.96
2019-03-05T23:56:31.931Z,7.86
2019-03-05T23:59:01.364Z,7.86
